createdAt,value
2022-08-28T00:00:37.016Z,21.00
2022-08-28T00:03:04.336Z,20.91
2022-08-28T00:05:32.815Z,20.91
2022-08-28T00:08:00.196Z,20.83
2022-08-28T00:10:27.411Z,20.90
2022-08-28T00:12:58.193Z,20.87
2022-08-28T00:15:31.941Z,20.89
2022-08-28T00:17:58.803Z,20.88
2022-08-28T00:20:26.855Z,21.01
2022-08-28T00:22:55.482Z,21.02
2022-08-28T00:25:24.658Z,21.09
2022-08-28T00:27:53.025Z,20.91
2022-08-28T00:30:25.588Z,20.96
2022-08-28T00:32:53.648Z,21.00
2022-08-28T00:35:20.787Z,20.99
2022-08-28T00:37:48.228Z,20.98
2022-08-28T00:40:18.601Z,20.95
2022-08-28T00:42:55.371Z,20.90
2022-08-28T00:45:23.497Z,20.73
2022-08-28T00:47:50.426Z,20.69
2022-08-28T00:50:19.404Z,20.65
2022-08-28T00:52:48.398Z,20.58
2022-08-28T00:55:18.640Z,20.64
2022-08-28T00:57:49.246Z,20.75
2022-08-28T01:00:32.728Z,20.75
2022-08-28T01:02:59.885Z,20.76
2022-08-28T01:05:28.723Z,20.76
2022-08-28T01:07:57.497Z,20.75
2022-08-28T01:10:25.918Z,20.75
2022-08-28T01:12:54.758Z,20.80
2022-08-28T01:15:24.942Z,20.89
2022-08-28T01:17:56.455Z,20.90
2022-08-28T01:20:26.064Z,20.85
2022-08-28T01:23:01.841Z,20.77
2022-08-28T01:25:31.903Z,20.76
2022-08-28T01:27:58.818Z,20.80
2022-08-28T01:30:25.769Z,20.90
2022-08-28T01:32:55.504Z,21.07
2022-08-28T01:35:29.464Z,20.99
2022-08-28T01:37:56.192Z,20.93
2022-08-28T01:40:30.402Z,20.88
2022-08-28T01:43:09.235Z,20.89
2022-08-28T01:45:37.710Z,20.91
2022-08-28T01:48:06.453Z,20.90
2022-08-28T01:50:33.788Z,20.90
2022-08-28T01:53:01.215Z,20.91
2022-08-28T01:55:28.160Z,20.86
2022-08-28T01:57:56.208Z,20.97
2022-08-28T02:00:26.933Z,20.93
2022-08-28T02:02:56.304Z,20.99
2022-08-28T02:05:25.120Z,21.10
2022-08-28T02:07:52.532Z,21.04
2022-08-28T02:10:20.184Z,21.10
2022-08-28T02:12:46.717Z,21.06
2022-08-28T02:15:13.258Z,21.01
2022-08-28T02:17:39.924Z,21.02
2022-08-28T02:20:07.451Z,21.01
2022-08-28T02:22:35.439Z,20.92
2022-08-28T02:25:03.406Z,20.87
2022-08-28T02:27:30.977Z,20.88
2022-08-28T02:29:58.853Z,20.88
2022-08-28T02:32:26.353Z,20.75
2022-08-28T02:34:54.029Z,20.74
2022-08-28T02:37:21.685Z,20.74
2022-08-28T02:39:48.388Z,20.73
2022-08-28T02:42:15.762Z,20.84
2022-08-28T02:44:42.914Z,20.87
2022-08-28T02:47:09.533Z,20.90
2022-08-28T02:49:36.518Z,20.90
2022-08-28T02:52:03.808Z,20.93
2022-08-28T02:54:31.017Z,20.95
2022-08-28T02:56:58.573Z,21.03
2022-08-28T02:59:25.680Z,20.99
2022-08-28T03:01:52.910Z,21.09
2022-08-28T03:04:19.616Z,20.92
2022-08-28T03:06:46.221Z,21.04
2022-08-28T03:09:12.797Z,21.04
2022-08-28T03:11:41.366Z,21.14
2022-08-28T03:14:08.236Z,21.07
2022-08-28T03:16:34.959Z,21.06
2022-08-28T03:19:01.612Z,21.10
2022-08-28T03:21:28.204Z,21.17
2022-08-28T03:23:54.949Z,21.12
2022-08-28T03:26:21.860Z,21.00
2022-08-28T03:28:51.215Z,20.89
2022-08-28T03:31:20.929Z,20.95
2022-08-28T03:33:48.116Z,20.96
2022-08-28T03:36:18.836Z,21.02
2022-08-28T03:38:45.438Z,21.05
2022-08-28T03:41:13.305Z,21.02
2022-08-28T03:43:40.133Z,21.12
2022-08-28T03:46:07.492Z,21.07
2022-08-28T03:48:36.746Z,21.13
2022-08-28T03:51:13.587Z,21.03
2022-08-28T03:53:42.535Z,20.89
2022-08-28T03:56:16.117Z,20.86
2022-08-28T03:58:43.137Z,21.04
2022-08-28T04:01:10.079Z,21.11
2022-08-28T04:03:36.832Z,21.03
2022-08-28T04:06:03.575Z,21.15
2022-08-28T04:08:30.186Z,21.12
2022-08-28T04:10:57.017Z,21.16
2022-08-28T04:13:23.654Z,21.24
2022-08-28T04:15:58.968Z,21.20
2022-08-28T04:18:27.056Z,21.21
2022-08-28T04:21:02.440Z,21.07
2022-08-28T04:23:29.783Z,21.06
2022-08-28T04:25:56.391Z,21.07
2022-08-28T04:28:24.152Z,21.20
2022-08-28T04:30:55.075Z,21.14
2022-08-28T04:33:22.797Z,21.12
2022-08-28T04:35:49.407Z,21.18
2022-08-28T04:38:16.271Z,21.23
2022-08-28T04:40:43.173Z,21.27
2022-08-28T04:43:10.068Z,21.22
2022-08-28T04:45:41.087Z,21.19
2022-08-28T04:48:10.463Z,21.29
2022-08-28T04:50:44.491Z,21.26
2022-08-28T04:53:11.376Z,21.23
2022-08-28T04:55:53.866Z,21.23
2022-08-28T04:58:23.798Z,21.18
2022-08-28T05:00:51.853Z,21.28
2022-08-28T05:03:18.403Z,21.27
2022-08-28T05:05:53.253Z,20.97
2022-08-28T05:08:23.348Z,21.13
2022-08-28T05:10:50.816Z,21.25
2022-08-28T05:13:20.982Z,21.24
2022-08-28T05:15:50.227Z,21.33
2022-08-28T05:18:19.979Z,21.32
2022-08-28T05:20:48.177Z,21.40
2022-08-28T05:23:15.822Z,21.50
2022-08-28T05:25:44.599Z,21.43
2022-08-28T05:28:12.531Z,21.22
2022-08-28T05:30:41.088Z,21.38
2022-08-28T05:33:08.783Z,21.34
2022-08-28T05:35:38.352Z,21.48
2022-08-28T05:38:06.305Z,21.43
2022-08-28T05:40:33.267Z,21.44
2022-08-28T05:42:59.900Z,21.61
2022-08-28T05:45:26.556Z,21.62
2022-08-28T05:47:53.413Z,21.77
2022-08-28T05:50:20.153Z,21.69
2022-08-28T05:52:47.397Z,21.77
2022-08-28T05:55:14.091Z,21.86
2022-08-28T05:57:41.031Z,21.96
2022-08-28T06:00:13.638Z,21.73
2022-08-28T06:02:41.913Z,21.85
2022-08-28T06:05:09.335Z,21.96
2022-08-28T06:07:41.016Z,21.91
2022-08-28T06:10:10.446Z,21.62
2022-08-28T06:12:37.932Z,22.03
2022-08-28T06:15:05.595Z,21.70
2022-08-28T06:17:32.185Z,21.76
2022-08-28T06:19:58.779Z,21.68
2022-08-28T06:22:25.358Z,21.70
2022-08-28T06:24:51.983Z,22.00
2022-08-28T06:27:18.563Z,21.88
2022-08-28T06:29:45.748Z,21.96
2022-08-28T06:32:12.410Z,21.93
2022-08-28T06:34:39.384Z,22.09
2022-08-28T06:37:06.166Z,22.03
2022-08-28T06:39:33.075Z,22.10
2022-08-28T06:42:02.239Z,22.22
2022-08-28T06:44:28.906Z,21.98
2022-08-28T06:46:55.615Z,22.10
2022-08-28T06:49:22.485Z,21.83
2022-08-28T06:51:49.710Z,21.98
2022-08-28T06:54:22.151Z,22.23
2022-08-28T06:56:49.433Z,22.45
2022-08-28T06:59:16.153Z,22.76
2022-08-28T07:01:42.797Z,22.75
2022-08-28T07:04:11.696Z,22.65
2022-08-28T07:06:43.140Z,22.73
2022-08-28T07:09:13.732Z,23.02
2022-08-28T07:11:41.306Z,23.17
2022-08-28T07:14:07.910Z,23.05
2022-08-28T07:16:40.507Z,23.34
2022-08-28T07:19:08.602Z,23.19
2022-08-28T07:21:39.270Z,23.48
2022-08-28T07:24:07.114Z,23.17
2022-08-28T07:26:35.577Z,23.33
2022-08-28T07:29:10.159Z,23.25
2022-08-28T07:31:40.699Z,23.16
2022-08-28T07:34:07.765Z,23.54
2022-08-28T07:36:35.006Z,23.24
2022-08-28T07:39:01.616Z,23.22
2022-08-28T07:41:30.340Z,23.32
2022-08-28T07:44:16.403Z,23.60
2022-08-28T07:46:44.437Z,24.01
2022-08-28T07:49:11.836Z,23.96
2022-08-28T07:51:38.610Z,23.85
2022-08-28T07:54:05.384Z,24.07
2022-08-28T07:56:33.071Z,23.81
2022-08-28T07:59:01.151Z,23.56
2022-08-28T08:01:29.677Z,23.98
2022-08-28T08:04:01.304Z,23.92
2022-08-28T08:06:33.794Z,23.98
2022-08-28T08:09:01.747Z,23.96
2022-08-28T08:11:28.312Z,24.26
2022-08-28T08:14:03.887Z,23.98
2022-08-28T08:16:34.932Z,23.80
2022-08-28T08:19:02.671Z,24.03
2022-08-28T08:21:30.471Z,24.19
2022-08-28T08:23:58.214Z,24.62
2022-08-28T08:26:27.966Z,24.55
2022-08-28T08:28:54.695Z,24.79
2022-08-28T08:31:27.406Z,24.65
2022-08-28T08:34:01.975Z,24.23
2022-08-28T08:36:29.929Z,24.60
2022-08-28T08:38:59.349Z,24.71
2022-08-28T08:41:31.151Z,24.65
2022-08-28T08:44:48.334Z,25.19
2022-08-28T08:47:27.178Z,24.99
2022-08-28T08:50:09.402Z,24.95
2022-08-28T08:52:41.835Z,24.59
2022-08-28T08:55:31.420Z,25.22
2022-08-28T08:58:05.520Z,25.32
2022-08-28T09:00:36.979Z,25.57
2022-08-28T09:03:15.649Z,25.34
2022-08-28T09:05:48.775Z,25.64
2022-08-28T09:08:21.563Z,25.40
2022-08-28T09:10:55.751Z,25.90
2022-08-28T09:13:48.834Z,25.47
2022-08-28T09:16:31.683Z,25.63
2022-08-28T09:18:59.277Z,25.95
2022-08-28T09:21:32.739Z,26.02
2022-08-28T09:24:05.606Z,26.34
2022-08-28T09:26:33.900Z,26.31
2022-08-28T09:29:16.296Z,25.87
2022-08-28T09:31:44.047Z,26.65
2022-08-28T09:34:22.755Z,27.02
2022-08-28T09:36:50.208Z,27.01
2022-08-28T09:39:18.138Z,26.43
2022-08-28T09:42:33.805Z,26.50
2022-08-28T09:45:20.997Z,26.19
2022-08-28T09:47:58.249Z,25.70
2022-08-28T09:50:41.678Z,25.23
2022-08-28T09:53:14.107Z,25.43
2022-08-28T09:55:59.416Z,25.08
2022-08-28T09:58:40.783Z,25.38
2022-08-28T10:01:25.625Z,25.26
2022-08-28T10:04:08.505Z,25.24
2022-08-28T10:06:37.042Z,25.28
2022-08-28T10:09:16.553Z,25.44
2022-08-28T10:12:05.011Z,25.26
2022-08-28T10:15:05.285Z,25.12
2022-08-28T10:17:58.709Z,25.41
2022-08-28T10:20:37.387Z,26.03
2022-08-28T10:23:24.516Z,25.96
2022-08-28T10:26:09.549Z,26.30
2022-08-28T10:28:45.297Z,26.56
2022-08-28T10:31:31.676Z,26.38
2022-08-28T10:34:22.446Z,26.10
2022-08-28T10:37:00.864Z,26.11
2022-08-28T10:39:45.999Z,25.97
2022-08-28T10:42:12.810Z,25.82
2022-08-28T10:44:49.881Z,25.36
2022-08-28T10:47:18.789Z,25.28
2022-08-28T10:49:47.373Z,25.32
2022-08-28T10:52:22.887Z,25.42
2022-08-28T10:54:57.686Z,25.40
2022-08-28T10:57:39.670Z,25.66
2022-08-28T11:00:14.723Z,25.43
2022-08-28T11:02:46.386Z,25.52
2022-08-28T11:05:13.523Z,25.61
2022-08-28T11:07:44.851Z,25.66
2022-08-28T11:10:29.799Z,25.56
2022-08-28T11:12:56.499Z,26.30
2022-08-28T11:15:36.438Z,26.60
2022-08-28T11:18:15.809Z,26.65
2022-08-28T11:20:44.565Z,26.90
2022-08-28T11:23:23.726Z,26.48
2022-08-28T11:25:58.750Z,27.11
2022-08-28T11:28:25.641Z,26.78
2022-08-28T11:30:58.263Z,26.97
2022-08-28T11:33:42.492Z,27.07
2022-08-28T11:36:29.931Z,26.67
2022-08-28T11:38:57.515Z,26.35
2022-08-28T11:41:38.936Z,26.41
2022-08-28T11:44:14.613Z,26.42
2022-08-28T11:46:47.908Z,26.59
2022-08-28T11:49:26.433Z,26.40
2022-08-28T11:52:01.979Z,26.89
2022-08-28T11:55:02.422Z,27.09
2022-08-28T11:57:55.220Z,27.06
2022-08-28T12:00:28.870Z,27.15
2022-08-28T12:03:09.189Z,26.55
2022-08-28T12:05:39.356Z,26.59
2022-08-28T12:08:06.008Z,26.41
2022-08-28T12:10:32.501Z,25.96
2022-08-28T12:13:07.388Z,25.81
2022-08-28T12:15:34.115Z,25.68
2022-08-28T12:18:22.440Z,26.10
2022-08-28T12:20:52.115Z,25.86
2022-08-28T12:23:41.704Z,26.39
2022-08-28T12:26:22.814Z,26.56
2022-08-28T12:29:01.825Z,26.63
2022-08-28T12:32:10.001Z,26.59
2022-08-28T12:34:45.758Z,26.10
2022-08-28T12:37:31.252Z,25.92
2022-08-28T12:40:19.381Z,26.37
2022-08-28T12:42:53.166Z,26.52
2022-08-28T12:45:36.365Z,26.52
2022-08-28T12:48:08.659Z,26.92
2022-08-28T12:50:38.197Z,26.98
2022-08-28T12:53:12.469Z,27.25
2022-08-28T12:55:40.236Z,27.80
2022-08-28T12:58:27.092Z,28.15
2022-08-28T13:00:54.973Z,27.58
2022-08-28T13:03:22.252Z,26.78
2022-08-28T13:05:56.574Z,26.78
2022-08-28T13:08:23.782Z,26.52
2022-08-28T13:10:51.507Z,26.39
2022-08-28T13:13:36.727Z,26.35
2022-08-28T13:16:07.439Z,26.50
2022-08-28T13:18:43.014Z,26.03
2022-08-28T13:21:33.213Z,26.12
2022-08-28T13:24:21.141Z,26.61
2022-08-28T13:26:50.331Z,26.52
2022-08-28T13:29:19.969Z,26.71
2022-08-28T13:31:59.708Z,26.59
2022-08-28T13:34:34.535Z,26.86
2022-08-28T13:37:14.843Z,27.09
2022-08-28T13:39:47.020Z,26.77
2022-08-28T13:42:16.366Z,27.49
2022-08-28T13:44:49.229Z,27.52
2022-08-28T13:47:16.758Z,26.74
2022-08-28T13:49:43.816Z,26.67
2022-08-28T13:52:10.608Z,27.14
2022-08-28T13:54:38.089Z,27.42
2022-08-28T13:57:09.296Z,27.42
2022-08-28T13:59:35.949Z,27.48
2022-08-28T14:02:23.999Z,28.08
2022-08-28T14:04:50.727Z,27.77
2022-08-28T14:07:17.631Z,27.50
2022-08-28T14:09:44.262Z,27.58
2022-08-28T14:12:11.414Z,28.07
2022-08-28T14:14:40.190Z,27.59
2022-08-28T14:17:08.063Z,27.64
2022-08-28T14:19:34.726Z,27.49
2022-08-28T14:22:01.379Z,27.28
2022-08-28T14:24:29.341Z,27.25
2022-08-28T14:26:56.084Z,27.28
2022-08-28T14:29:22.735Z,27.03
2022-08-28T14:31:49.430Z,27.03
2022-08-28T14:34:19.260Z,26.98
2022-08-28T14:36:46.723Z,26.81
2022-08-28T14:39:13.540Z,26.91
2022-08-28T14:41:46.117Z,26.93
2022-08-28T14:44:15.942Z,26.94
2022-08-28T14:46:44.245Z,27.20
2022-08-28T14:49:13.330Z,27.13
2022-08-28T14:51:41.471Z,27.38
2022-08-28T14:54:09.889Z,27.59
2022-08-28T14:56:36.666Z,27.46
2022-08-28T14:59:05.853Z,27.63
2022-08-28T15:01:40.426Z,27.24
2022-08-28T15:04:10.405Z,27.23
2022-08-28T15:06:37.103Z,27.31
2022-08-28T15:09:04.119Z,27.15
2022-08-28T15:11:31.024Z,26.71
2022-08-28T15:13:58.499Z,26.93
2022-08-28T15:16:30.519Z,26.65
2022-08-28T15:18:58.374Z,26.52
2022-08-28T15:21:32.604Z,26.59
2022-08-28T15:24:00.766Z,26.41
2022-08-28T15:26:28.421Z,26.82
2022-08-28T15:28:55.952Z,27.12
2022-08-28T15:31:24.631Z,27.15
2022-08-28T15:33:52.062Z,27.36
2022-08-28T15:36:19.730Z,27.39
2022-08-28T15:39:04.909Z,27.51
2022-08-28T15:41:31.756Z,27.43
2022-08-28T15:44:01.435Z,27.15
2022-08-28T15:46:33.709Z,27.23
2022-08-28T15:49:05.391Z,27.01
2022-08-28T15:51:36.056Z,27.13
2022-08-28T15:54:02.732Z,26.92
2022-08-28T15:56:29.377Z,26.71
2022-08-28T15:58:56.080Z,26.72
2022-08-28T16:01:22.820Z,26.90
2022-08-28T16:03:49.890Z,26.94
2022-08-28T16:06:19.959Z,27.00
2022-08-28T16:08:49.044Z,27.15
2022-08-28T16:11:21.036Z,27.14
2022-08-28T16:13:48.302Z,26.71
2022-08-28T16:16:15.474Z,27.11
2022-08-28T16:18:43.855Z,27.43
2022-08-28T16:21:15.754Z,27.47
2022-08-28T16:23:44.181Z,27.55
2022-08-28T16:26:14.126Z,27.43
2022-08-28T16:28:41.946Z,27.30
2022-08-28T16:31:11.182Z,27.01
2022-08-28T16:33:48.334Z,26.92
2022-08-28T16:36:23.711Z,26.59
2022-08-28T16:39:00.375Z,27.21
2022-08-28T16:41:32.821Z,28.27
2022-08-28T16:44:00.248Z,29.05
2022-08-28T16:46:27.545Z,29.11
2022-08-28T16:48:55.237Z,29.12
2022-08-28T16:51:33.119Z,29.60
2022-08-28T16:54:04.009Z,29.73
2022-08-28T16:56:31.625Z,30.10
2022-08-28T16:58:59.645Z,29.42
2022-08-28T17:01:32.241Z,29.10
2022-08-28T17:04:01.032Z,28.35
2022-08-28T17:06:31.451Z,27.89
2022-08-28T17:08:59.670Z,27.66
2022-08-28T17:11:28.807Z,27.50
2022-08-28T17:13:57.473Z,27.21
2022-08-28T17:16:26.337Z,27.24
2022-08-28T17:18:55.862Z,26.68
2022-08-28T17:21:44.876Z,26.56
2022-08-28T17:24:22.533Z,26.19
2022-08-28T17:26:51.770Z,26.19
2022-08-28T17:29:19.776Z,26.25
2022-08-28T17:31:48.189Z,26.22
2022-08-28T17:34:15.660Z,26.19
2022-08-28T17:36:50.676Z,26.05
2022-08-28T17:39:25.633Z,25.90
2022-08-28T17:41:53.661Z,25.73
2022-08-28T17:44:21.627Z,25.51
2022-08-28T17:46:49.019Z,25.55
2022-08-28T17:49:20.372Z,25.51
2022-08-28T17:51:49.777Z,25.46
2022-08-28T17:54:21.385Z,25.47
2022-08-28T17:56:50.397Z,25.36
2022-08-28T17:59:18.778Z,25.25
2022-08-28T18:01:47.843Z,25.20
2022-08-28T18:04:21.611Z,24.91
2022-08-28T18:06:57.886Z,24.90
2022-08-28T18:09:26.648Z,24.66
2022-08-28T18:11:56.381Z,24.53
2022-08-28T18:14:24.431Z,24.46
2022-08-28T18:16:51.826Z,24.29
2022-08-28T18:19:19.763Z,24.11
2022-08-28T18:21:46.393Z,24.00
2022-08-28T18:24:13.196Z,23.88
2022-08-28T18:26:41.416Z,23.80
2022-08-28T18:29:08.046Z,23.80
2022-08-28T18:31:34.961Z,23.75
2022-08-28T18:34:01.869Z,23.68
2022-08-28T18:36:29.392Z,23.59
2022-08-28T18:38:56.187Z,23.54
2022-08-28T18:41:26.938Z,23.51
2022-08-28T18:44:09.378Z,23.43
2022-08-28T18:46:36.313Z,23.39
2022-08-28T18:49:03.813Z,23.32
2022-08-28T18:51:32.318Z,23.24
2022-08-28T18:54:00.956Z,23.16
2022-08-28T18:56:29.569Z,23.13
2022-08-28T18:58:59.116Z,23.08
2022-08-28T19:01:25.888Z,22.97
2022-08-28T19:03:54.126Z,22.95
2022-08-28T19:06:20.856Z,23.01
2022-08-28T19:08:47.606Z,22.91
2022-08-28T19:11:14.777Z,22.92
2022-08-28T19:13:41.786Z,22.94
2022-08-28T19:16:08.745Z,22.88
2022-08-28T19:18:36.245Z,22.96
2022-08-28T19:21:08.834Z,22.87
2022-08-28T19:23:37.173Z,22.89
2022-08-28T19:26:05.580Z,22.77
2022-08-28T19:28:33.677Z,22.79
2022-08-28T19:31:00.348Z,22.81
2022-08-28T19:33:27.410Z,22.87
2022-08-28T19:35:55.254Z,22.87
2022-08-28T19:38:22.976Z,22.80
2022-08-28T19:40:50.138Z,22.75
2022-08-28T19:43:17.243Z,22.73
2022-08-28T19:45:45.070Z,22.65
2022-08-28T19:48:12.318Z,22.61
2022-08-28T19:50:39.445Z,22.60
2022-08-28T19:53:06.787Z,22.66
2022-08-28T19:55:33.801Z,22.69
2022-08-28T19:58:04.160Z,22.66
2022-08-28T20:00:33.148Z,22.46
2022-08-28T20:03:00.221Z,22.56
2022-08-28T20:05:27.298Z,22.41
2022-08-28T20:07:54.353Z,22.30
2022-08-28T20:10:21.522Z,22.30
2022-08-28T20:12:48.941Z,22.33
2022-08-28T20:15:16.330Z,22.22
2022-08-28T20:17:49.338Z,22.22
2022-08-28T20:20:19.275Z,22.16
2022-08-28T20:22:46.015Z,22.18
2022-08-28T20:25:13.341Z,22.19
2022-08-28T20:27:41.686Z,22.17
2022-08-28T20:30:10.904Z,22.05
2022-08-28T20:32:40.163Z,22.15
2022-08-28T20:35:12.079Z,22.08
2022-08-28T20:37:44.842Z,21.99
2022-08-28T20:40:17.360Z,22.08
2022-08-28T20:42:46.398Z,22.06
2022-08-28T20:45:18.325Z,21.91
2022-08-28T20:47:46.496Z,22.06
2022-08-28T20:50:14.271Z,21.90
2022-08-28T20:52:41.394Z,21.82
2022-08-28T20:55:08.692Z,21.79
2022-08-28T20:57:35.276Z,21.69
2022-08-28T21:00:05.680Z,21.66
2022-08-28T21:02:33.051Z,21.65
2022-08-28T21:04:59.934Z,21.67
2022-08-28T21:07:27.213Z,21.61
2022-08-28T21:10:06.137Z,21.65
2022-08-28T21:12:38.730Z,21.52
2022-08-28T21:15:07.588Z,21.57
2022-08-28T21:17:34.453Z,21.56
2022-08-28T21:20:04.707Z,21.51
2022-08-28T21:22:33.001Z,21.50
2022-08-28T21:25:02.311Z,21.43
2022-08-28T21:27:28.952Z,21.40
2022-08-28T21:29:58.251Z,21.33
2022-08-28T21:32:25.980Z,21.32
2022-08-28T21:34:53.089Z,21.24
2022-08-28T21:37:20.192Z,21.28
2022-08-28T21:39:46.819Z,21.32
2022-08-28T21:42:13.690Z,21.31
2022-08-28T21:44:40.795Z,21.16
2022-08-28T21:47:17.926Z,21.17
2022-08-28T21:49:47.931Z,21.19
2022-08-28T21:52:14.546Z,21.01
2022-08-28T21:54:41.145Z,20.97
2022-08-28T21:57:07.755Z,20.98
2022-08-28T21:59:38.084Z,20.85
2022-08-28T22:02:05.338Z,20.75
2022-08-28T22:04:32.036Z,20.82
2022-08-28T22:06:58.679Z,20.79
2022-08-28T22:09:25.337Z,20.82
2022-08-28T22:11:51.857Z,20.67
2022-08-28T22:14:18.443Z,20.79
2022-08-28T22:16:45.126Z,20.78
2022-08-28T22:19:11.790Z,20.57
2022-08-28T22:21:56.734Z,20.66
2022-08-28T22:24:23.670Z,20.61
2022-08-28T22:26:50.392Z,20.54
2022-08-28T22:29:24.280Z,20.56
2022-08-28T22:31:50.966Z,20.58
2022-08-28T22:34:17.685Z,20.47
2022-08-28T22:36:44.312Z,20.44
2022-08-28T22:39:10.945Z,20.36
2022-08-28T22:41:37.675Z,20.46
2022-08-28T22:44:04.694Z,20.44
2022-08-28T22:46:31.247Z,20.39
2022-08-28T22:49:02.889Z,20.36
2022-08-28T22:51:29.456Z,20.35
2022-08-28T22:53:56.112Z,20.38
2022-08-28T22:56:22.735Z,20.36
2022-08-28T22:58:49.331Z,20.40
2022-08-28T23:01:22.839Z,20.33
2022-08-28T23:03:50.004Z,20.28
2022-08-28T23:06:17.113Z,20.18
2022-08-28T23:08:43.828Z,20.23
2022-08-28T23:11:10.853Z,20.13
2022-08-28T23:13:37.984Z,20.15
2022-08-28T23:16:05.147Z,20.12
2022-08-28T23:18:46.340Z,19.97
2022-08-28T23:21:19.755Z,20.02
2022-08-28T23:23:46.620Z,20.21
2022-08-28T23:26:14.439Z,19.85
2022-08-28T23:28:41.334Z,19.94
2022-08-28T23:31:08.024Z,19.97
2022-08-28T23:33:34.595Z,19.62
2022-08-28T23:36:02.416Z,19.83
2022-08-28T23:38:29.028Z,19.87
2022-08-28T23:40:55.841Z,19.68
2022-08-28T23:43:23.585Z,19.57
2022-08-28T23:45:51.898Z,19.40
2022-08-28T23:48:18.647Z,19.42
2022-08-28T23:50:45.345Z,19.57
2022-08-28T23:53:12.099Z,19.48
2022-08-28T23:55:38.805Z,19.53
2022-08-28T23:58:06.941Z,19.53
